sensor_id;sensor_type;location;lat;lon;timestamp;temperature;humidity
54409;DHT22;40315;48.620;9.828;2023-05-16T00:01:34;9.40;99.90
54409;DHT22;40315;48.620;9.828;2023-05-16T00:04:04;9.40;99.90
54409;DHT22;40315;48.620;9.828;2023-05-16T00:06:31;10.30;99.90
54409;DHT22;40315;48.620;9.828;2023-05-16T00:09:00;9.50;99.90
54409;DHT22;40315;48.620;9.828;2023-05-16T00:11:27;9.40;99.90
54409;DHT22;40315;48.620;9.828;2023-05-16T00:13:54;9.40;99.90
54409;DHT22;40315;48.620;9.828;2023-05-16T00:16:21;9.40;99.90
54409;DHT22;40315;48.620;9.828;2023-05-16T00:18:50;9.40;99.90
54409;DHT22;40315;48.620;9.828;2023-05-16T00:21:19;9.40;99.90
54409;DHT22;40315;48.620;9.828;2023-05-16T00:23:46;9.30;99.90
54409;DHT22;40315;48.620;9.828;2023-05-16T00:26:13;9.30;99.90
54409;DHT22;40315;48.620;9.828;2023-05-16T00:28:40;9.30;99.90
54409;DHT22;40315;48.620;9.828;2023-05-16T00:31:07;9.20;99.90
54409;DHT22;40315;48.620;9.828;2023-05-16T00:33:36;9.80;99.90
54409;DHT22;40315;48.620;9.828;2023-05-16T00:36:04;9.10;99.90
54409;DHT22;40315;48.620;9.828;2023-05-16T00:38:32;9.10;99.90
54409;DHT22;40315;48.620;9.828;2023-05-16T00:41:02;9.10;99.90
54409;DHT22;40315;48.620;9.828;2023-05-16T00:43:29;9.10;99.90
54409;DHT22;40315;48.620;9.828;2023-05-16T00:45:56;9.10;99.90
54409;DHT22;40315;48.620;9.828;2023-05-16T00:48:25;9.10;99.90
54409;DHT22;40315;48.620;9.828;2023-05-16T00:50:54;10.60;99.90
54409;DHT22;40315;48.620;9.828;2023-05-16T00:53:22;9.00;99.90
54409;DHT22;40315;48.620;9.828;2023-05-16T00:55:50;9.00;99.90
54409;DHT22;40315;48.620;9.828;2023-05-16T00:58:18;9.00;99.90
54409;DHT22;40315;48.620;9.828;2023-05-16T01:03:29;8.70;99.90
54409;DHT22;40315;48.620;9.828;2023-05-16T01:05:56;8.70;99.90
54409;DHT22;40315;48.620;9.828;2023-05-16T01:08:23;9.00;99.90
54409;DHT22;40315;48.620;9.828;2023-05-16T01:10:59;8.70;99.90
54409;DHT22;40315;48.620;9.828;2023-05-16T01:13:35;8.70;99.90
54409;DHT22;40315;48.620;9.828;2023-05-16T01:16:14;8.70;99.90
54409;DHT22;40315;48.620;9.828;2023-05-16T01:18:46;8.60;99.90
54409;DHT22;40315;48.620;9.828;2023-05-16T01:21:23;8.60;99.90
54409;DHT22;40315;48.620;9.828;2023-05-16T01:24:08;8.50;99.90
54409;DHT22;40315;48.620;9.828;2023-05-16T01:26:40;8.50;99.90
54409;DHT22;40315;48.620;9.828;2023-05-16T01:29:07;8.40;99.90
54409;DHT22;40315;48.620;9.828;2023-05-16T01:31:35;8.50;99.90
54409;DHT22;40315;48.620;9.828;2023-05-16T01:34:02;8.40;99.90
54409;DHT22;40315;48.620;9.828;2023-05-16T01:36:35;8.30;99.90
54409;DHT22;40315;48.620;9.828;2023-05-16T01:39:12;8.40;99.90
54409;DHT22;40315;48.620;9.828;2023-05-16T01:41:52;8.40;99.90
54409;DHT22;40315;48.620;9.828;2023-05-16T01:44:25;8.50;99.90
54409;DHT22;40315;48.620;9.828;2023-05-16T18:13:31;11.10;99.90
54409;DHT22;40315;48.620;9.828;2023-05-16T18:15:58;11.10;99.90
54409;DHT22;40315;48.620;9.828;2023-05-16T18:18:25;11.10;99.90
54409;DHT22;40315;48.620;9.828;2023-05-16T18:20:56;11.00;99.90
54409;DHT22;40315;48.620;9.828;2023-05-16T18:23:24;11.10;99.90
54409;DHT22;40315;48.620;9.828;2023-05-16T18:25:53;11.00;99.90
54409;DHT22;40315;48.620;9.828;2023-05-16T18:28:21;11.00;99.90
54409;DHT22;40315;48.620;9.828;2023-05-16T18:30:49;11.00;99.90
54409;DHT22;40315;48.620;9.828;2023-05-16T18:33:16;11.00;99.90
54409;DHT22;40315;48.620;9.828;2023-05-16T18:35:45;10.90;99.90
54409;DHT22;40315;48.620;9.828;2023-05-16T18:38:13;11.00;99.90
54409;DHT22;40315;48.620;9.828;2023-05-16T18:40:40;11.00;99.90
54409;DHT22;40315;48.620;9.828;2023-05-16T18:43:14;11.00;99.90
54409;DHT22;40315;48.620;9.828;2023-05-16T18:45:42;10.90;99.90
54409;DHT22;40315;48.620;9.828;2023-05-16T18:48:10;10.90;99.90
54409;DHT22;40315;48.620;9.828;2023-05-16T18:50:38;10.80;99.90
54409;DHT22;40315;48.620;9.828;2023-05-16T18:53:05;10.80;99.90
54409;DHT22;40315;48.620;9.828;2023-05-16T18:55:32;10.70;99.90
54409;DHT22;40315;48.620;9.828;2023-05-16T18:58:00;10.70;99.90
54409;DHT22;40315;48.620;9.828;2023-05-16T19:00:27;10.70;99.90
54409;DHT22;40315;48.620;9.828;2023-05-16T19:02:55;10.70;99.90
54409;DHT22;40315;48.620;9.828;2023-05-16T19:05:23;10.70;99.90
54409;DHT22;40315;48.620;9.828;2023-05-16T19:07:50;10.70;99.90
54409;DHT22;40315;48.620;9.828;2023-05-16T19:10:24;10.60;99.90
54409;DHT22;40315;48.620;9.828;2023-05-16T19:12:53;10.60;99.90
54409;DHT22;40315;48.620;9.828;2023-05-16T19:15:20;10.50;99.90
54409;DHT22;40315;48.620;9.828;2023-05-16T19:20:15;10.40;99.90
54409;DHT22;40315;48.620;9.828;2023-05-16T19:22:44;10.40;99.90
54409;DHT22;40315;48.620;9.828;2023-05-16T19:25:11;10.30;99.90
54409;DHT22;40315;48.620;9.828;2023-05-16T19:27:40;10.40;99.90
54409;DHT22;40315;48.620;9.828;2023-05-16T19:30:08;10.30;99.90
54409;DHT22;40315;48.620;9.828;2023-05-16T19:32:36;10.20;99.90
54409;DHT22;40315;48.620;9.828;2023-05-16T19:35:06;10.30;99.90
54409;DHT22;40315;48.620;9.828;2023-05-16T19:37:34;10.20;99.90
54409;DHT22;40315;48.620;9.828;2023-05-16T19:40:04;10.20;99.90
54409;DHT22;40315;48.620;9.828;2023-05-16T19:42:32;10.10;99.90
54409;DHT22;40315;48.620;9.828;2023-05-16T19:44:59;10.10;99.90
54409;DHT22;40315;48.620;9.828;2023-05-16T19:47:26;10.00;99.90
54409;DHT22;40315;48.620;9.828;2023-05-16T19:52:21;10.00;99.90
54409;DHT22;40315;48.620;9.828;2023-05-16T19:54:50;9.90;99.90
54409;DHT22;40315;48.620;9.828;2023-05-16T19:57:19;10.00;99.90
54409;DHT22;40315;48.620;9.828;2023-05-16T19:59:46;10.00;99.90
54409;DHT22;40315;48.620;9.828;2023-05-16T20:02:13;10.90;99.90
54409;DHT22;40315;48.620;9.828;2023-05-16T20:04:41;9.90;99.90
54409;DHT22;40315;48.620;9.828;2023-05-16T20:09:36;9.90;99.90
54409;DHT22;40315;48.620;9.828;2023-05-16T20:12:04;9.90;99.90
54409;DHT22;40315;48.620;9.828;2023-05-16T20:19:31;9.60;99.90
54409;DHT22;40315;48.620;9.828;2023-05-16T20:21:59;9.50;99.90
54409;DHT22;40315;48.620;9.828;2023-05-16T20:24:29;9.50;99.90
54409;DHT22;40315;48.620;9.828;2023-05-16T20:26:56;9.50;99.90
54409;DHT22;40315;48.620;9.828;2023-05-16T20:29:26;9.50;99.90
54409;DHT22;40315;48.620;9.828;2023-05-16T20:34:27;9.60;99.90
54409;DHT22;40315;48.620;9.828;2023-05-16T20:36:55;9.70;99.90
54409;DHT22;40315;48.620;9.828;2023-05-16T20:39:23;9.60;99.90
54409;DHT22;40315;48.620;9.828;2023-05-16T20:41:51;9.50;99.90
54409;DHT22;40315;48.620;9.828;2023-05-16T20:44:21;9.50;99.90
54409;DHT22;40315;48.620;9.828;2023-05-16T20:46:48;9.50;99.90
54409;DHT22;40315;48.620;9.828;2023-05-16T20:49:16;9.50;99.90
54409;DHT22;40315;48.620;9.828;2023-05-16T20:51:45;9.50;99.90
54409;DHT22;40315;48.620;9.828;2023-05-16T20:54:13;10.20;99.90
54409;DHT22;40315;48.620;9.828;2023-05-16T20:56:40;9.40;99.90
54409;DHT22;40315;48.620;9.828;2023-05-16T20:59:07;9.40;99.90
54409;DHT22;40315;48.620;9.828;2023-05-16T21:01:34;9.40;99.90
54409;DHT22;40315;48.620;9.828;2023-05-16T21:04:01;9.40;99.90
54409;DHT22;40315;48.620;9.828;2023-05-16T21:06:29;9.40;99.90
54409;DHT22;40315;48.620;9.828;2023-05-16T21:08:57;9.30;99.90
54409;DHT22;40315;48.620;9.828;2023-05-16T21:11:24;9.20;99.90
54409;DHT22;40315;48.620;9.828;2023-05-16T21:13:52;9.20;99.90
54409;DHT22;40315;48.620;9.828;2023-05-16T21:16:19;9.10;99.90
54409;DHT22;40315;48.620;9.828;2023-05-16T21:18:46;9.10;99.90
54409;DHT22;40315;48.620;9.828;2023-05-16T21:21:13;9.10;99.90
54409;DHT22;40315;48.620;9.828;2023-05-16T21:23:42;9.50;99.90
54409;DHT22;40315;48.620;9.828;2023-05-16T21:26:09;9.00;99.90
54409;DHT22;40315;48.620;9.828;2023-05-16T21:28:36;9.10;99.90
54409;DHT22;40315;48.620;9.828;2023-05-16T21:31:03;9.00;99.90
54409;DHT22;40315;48.620;9.828;2023-05-16T21:33:31;8.90;99.90
54409;DHT22;40315;48.620;9.828;2023-05-16T21:35:58;9.00;99.90
54409;DHT22;40315;48.620;9.828;2023-05-16T21:38:27;9.00;99.90
54409;DHT22;40315;48.620;9.828;2023-05-16T21:40:55;8.90;99.90
54409;DHT22;40315;48.620;9.828;2023-05-16T21:43:23;9.00;99.90
54409;DHT22;40315;48.620;9.828;2023-05-16T21:45:50;9.70;99.90
54409;DHT22;40315;48.620;9.828;2023-05-16T21:48:17;8.90;99.90
54409;DHT22;40315;48.620;9.828;2023-05-16T21:50:44;9.00;99.90
54409;DHT22;40315;48.620;9.828;2023-05-16T21:53:13;9.00;99.90
54409;DHT22;40315;48.620;9.828;2023-05-16T21:55:42;9.00;99.90
54409;DHT22;40315;48.620;9.828;2023-05-16T21:58:10;8.90;99.90
54409;DHT22;40315;48.620;9.828;2023-05-16T22:00:37;9.00;99.90
54409;DHT22;40315;48.620;9.828;2023-05-16T22:03:04;10.30;99.90
54409;DHT22;40315;48.620;9.828;2023-05-16T22:05:33;8.90;99.90
54409;DHT22;40315;48.620;9.828;2023-05-16T22:08:00;8.80;99.90
54409;DHT22;40315;48.620;9.828;2023-05-16T22:10:30;8.90;99.90
54409;DHT22;40315;48.620;9.828;2023-05-16T22:12:57;8.90;99.90
54409;DHT22;40315;48.620;9.828;2023-05-16T22:17:53;8.80;99.90
54409;DHT22;40315;48.620;9.828;2023-05-16T22:20:22;8.70;99.90
54409;DHT22;40315;48.620;9.828;2023-05-16T22:22:51;8.70;99.90
54409;DHT22;40315;48.620;9.828;2023-05-16T22:25:20;9.40;99.90
54409;DHT22;40315;48.620;9.828;2023-05-16T22:27:47;8.50;99.90
54409;DHT22;40315;48.620;9.828;2023-05-16T22:30:14;8.40;99.90
54409;DHT22;40315;48.620;9.828;2023-05-16T22:32:43;8.50;99.90
54409;DHT22;40315;48.620;9.828;2023-05-16T22:35:11;8.50;99.90
54409;DHT22;40315;48.620;9.828;2023-05-16T22:37:38;8.50;99.90
54409;DHT22;40315;48.620;9.828;2023-05-16T22:40:06;8.50;99.90
54409;DHT22;40315;48.620;9.828;2023-05-16T22:42:34;8.50;99.90
54409;DHT22;40315;48.620;9.828;2023-05-16T22:45:00;8.30;99.90
54409;DHT22;40315;48.620;9.828;2023-05-16T22:47:27;8.60;99.90
54409;DHT22;40315;48.620;9.828;2023-05-16T22:49:56;8.20;99.90
54409;DHT22;40315;48.620;9.828;2023-05-16T22:52:23;8.30;99.90
54409;DHT22;40315;48.620;9.828;2023-05-16T22:54:50;8.20;99.90
54409;DHT22;40315;48.620;9.828;2023-05-16T22:57:17;8.20;99.90
54409;DHT22;40315;48.620;9.828;2023-05-16T22:59:44;8.20;99.90
54409;DHT22;40315;48.620;9.828;2023-05-16T23:02:11;8.10;99.90
54409;DHT22;40315;48.620;9.828;2023-05-16T23:04:41;8.70;99.90
54409;DHT22;40315;48.620;9.828;2023-05-16T23:07:12;8.20;99.90
54409;DHT22;40315;48.620;9.828;2023-05-16T23:09:39;8.20;99.90
54409;DHT22;40315;48.620;9.828;2023-05-16T23:12:07;8.10;99.90
54409;DHT22;40315;48.620;9.828;2023-05-16T23:14:34;8.00;99.90
54409;DHT22;40315;48.620;9.828;2023-05-16T23:17:01;8.10;99.90
54409;DHT22;40315;48.620;9.828;2023-05-16T23:19:29;8.10;99.90
54409;DHT22;40315;48.620;9.828;2023-05-16T23:21:56;8.10;99.90
54409;DHT22;40315;48.620;9.828;2023-05-16T23:24:26;8.20;99.90
54409;DHT22;40315;48.620;9.828;2023-05-16T23:26:53;8.30;99.90
54409;DHT22;40315;48.620;9.828;2023-05-16T23:29:20;8.10;99.90
54409;DHT22;40315;48.620;9.828;2023-05-16T23:31:47;8.10;99.90
54409;DHT22;40315;48.620;9.828;2023-05-16T23:34:14;8.10;99.90
54409;DHT22;40315;48.620;9.828;2023-05-16T23:36:41;8.00;99.90
54409;DHT22;40315;48.620;9.828;2023-05-16T23:39:08;8.00;99.90
54409;DHT22;40315;48.620;9.828;2023-05-16T23:41:37;8.50;99.90
54409;DHT22;40315;48.620;9.828;2023-05-16T23:44:04;8.10;99.90
54409;DHT22;40315;48.620;9.828;2023-05-16T23:46:33;8.10;99.90
54409;DHT22;40315;48.620;9.828;2023-05-16T23:49:00;8.10;99.90
54409;DHT22;40315;48.620;9.828;2023-05-16T23:51:29;8.00;99.90
54409;DHT22;40315;48.620;9.828;2023-05-16T23:53:56;7.90;99.90
54409;DHT22;40315;48.620;9.828;2023-05-16T23:56:25;7.80;99.90
